AVN weather

Avignon-Caumont Airport
Avignon/Caumont, Provence-Alpes-Côte-d'Azur, France

Public forecast

Using degrees Celsius for public forecast. Weather courtesy of forecast.io.

METAR (pilot weather report)

Retrieved 2019/06/19 09:30 UTC (0 seconds ago):

LFMV 190930Z AUTO 18011KT 140V210 CAVOK 28/08 Q1014 NOSIG

TAF (pilot weather forecast)

Retrieved 2019/06/19 09:00 UTC (10 minutes ago):

TAF LFMV 190800Z 1909/2009 18013KT CAVOK BECMG 1919/1921 VRB03KT PROB30 TEMPO 2000/2004 2000 BR BKN005 BECMG 2007/2009 32010KT